createdAt,value
2022-12-01T00:01:21.119Z,88.68
2022-12-01T00:03:49.766Z,88.72
2022-12-01T00:06:19.271Z,88.88
2022-12-01T00:09:08.534Z,88.80
2022-12-01T00:11:38.056Z,88.94
2022-12-01T00:14:06.798Z,88.94
2022-12-01T00:16:35.331Z,88.79
2022-12-01T00:19:03.787Z,88.81
2022-12-01T00:21:32.062Z,88.79
2022-12-01T00:24:01.625Z,88.83
2022-12-01T00:26:29.819Z,88.81
2022-12-01T00:28:59.789Z,88.83
2022-12-01T00:31:28.056Z,88.72
2022-12-01T00:33:56.440Z,88.76
2022-12-01T00:36:24.828Z,88.66
2022-12-01T00:38:54.611Z,88.71
2022-12-01T00:41:25.442Z,88.81
2022-12-01T00:43:53.748Z,88.72
2022-12-01T00:46:22.192Z,88.78
2022-12-01T00:48:50.341Z,88.75
2022-12-01T00:51:18.589Z,88.81
2022-12-01T00:53:47.056Z,88.68
2022-12-01T00:56:15.409Z,88.71
2022-12-01T00:58:44.927Z,88.95
2022-12-01T01:01:13.101Z,88.81
2022-12-01T01:03:41.268Z,88.90
2022-12-01T01:06:11.519Z,88.89
2022-12-01T01:08:39.794Z,88.87
2022-12-01T01:11:09.111Z,88.98
2022-12-01T01:13:38.090Z,88.89
2022-12-01T01:16:11.365Z,88.84
2022-12-01T01:18:39.504Z,88.89
2022-12-01T01:21:09.456Z,89.00
2022-12-01T01:23:37.620Z,88.75
2022-12-01T01:26:07.760Z,88.75
2022-12-01T01:28:36.074Z,88.85
2022-12-01T01:31:08.086Z,88.97
2022-12-01T01:33:36.390Z,89.02
2022-12-01T01:36:05.655Z,88.84
2022-12-01T01:38:34.378Z,88.98
2022-12-01T01:41:03.003Z,88.89
2022-12-01T01:43:43.972Z,88.90
2022-12-01T01:46:16.306Z,88.72
2022-12-01T01:48:48.133Z,88.87
2022-12-01T01:51:17.968Z,88.74
2022-12-01T01:53:46.701Z,88.84
2022-12-01T01:56:14.947Z,88.74
2022-12-01T01:58:43.420Z,88.80
2022-12-01T02:01:12.993Z,88.76
2022-12-01T02:03:42.071Z,88.68
2022-12-01T02:06:10.823Z,88.72
2022-12-01T02:08:39.167Z,88.63
2022-12-01T02:11:48.353Z,88.74
2022-12-01T02:14:30.729Z,88.98
2022-12-01T02:17:03.254Z,88.68
2022-12-01T02:19:47.092Z,88.71
2022-12-01T02:22:23.471Z,88.63
2022-12-01T02:25:21.056Z,88.64
2022-12-01T02:28:24.837Z,88.69
2022-12-01T02:30:57.750Z,88.75
2022-12-01T02:33:29.586Z,88.67
2022-12-01T02:36:02.577Z,88.77
2022-12-01T02:38:34.663Z,88.81
2022-12-01T02:41:07.389Z,88.80
2022-12-01T02:43:40.404Z,88.83
2022-12-01T02:46:12.886Z,88.76
2022-12-01T02:48:43.866Z,88.81
2022-12-01T02:51:15.435Z,88.67
2022-12-01T02:53:43.738Z,88.70
2022-12-01T02:56:13.549Z,88.79
2022-12-01T02:58:41.691Z,88.64
2022-12-01T03:01:41.448Z,88.73
2022-12-01T03:04:22.137Z,88.70
2022-12-01T03:06:57.270Z,88.59
2022-12-01T03:09:30.937Z,88.73
2022-12-01T03:12:08.006Z,88.81
2022-12-01T03:14:42.986Z,88.92
2022-12-01T03:17:17.427Z,88.79
2022-12-01T03:19:49.095Z,88.72
2022-12-01T03:22:22.982Z,88.87
2022-12-01T03:24:52.600Z,88.66
2022-12-01T03:27:23.982Z,88.78
2022-12-01T03:29:56.615Z,88.55
2022-12-01T03:32:31.468Z,88.73
2022-12-01T03:35:01.220Z,88.67
2022-12-01T03:37:32.987Z,88.74
2022-12-01T03:40:02.573Z,88.82
2022-12-01T03:42:36.822Z,88.90
2022-12-01T03:45:08.616Z,88.71
2022-12-01T03:47:39.561Z,88.69
2022-12-01T03:50:11.347Z,88.78
2022-12-01T03:52:44.221Z,88.58
2022-12-01T03:55:16.199Z,88.63
2022-12-01T03:57:47.188Z,88.72
2022-12-01T04:00:16.944Z,88.60
2022-12-01T04:02:46.801Z,88.60
2022-12-01T04:05:15.262Z,88.62
2022-12-01T04:07:43.430Z,88.64
2022-12-01T04:10:12.130Z,88.63
2022-12-01T04:12:39.271Z,88.75
2022-12-01T04:15:09.255Z,88.59
2022-12-01T04:17:37.702Z,88.60
2022-12-01T04:20:08.915Z,88.54
2022-12-01T04:22:37.028Z,88.66
2022-12-01T04:25:05.975Z,88.63
2022-12-01T04:27:34.389Z,88.69
2022-12-01T04:30:02.679Z,88.53
2022-12-01T04:32:30.870Z,88.81
2022-12-01T04:34:58.987Z,88.80
2022-12-01T04:37:28.534Z,88.67
2022-12-01T04:39:56.645Z,88.76
2022-12-01T04:42:24.786Z,88.63
2022-12-01T04:44:52.928Z,88.76
2022-12-01T04:47:21.041Z,88.68
2022-12-01T04:49:49.956Z,88.72
2022-12-01T04:52:18.485Z,88.58
2022-12-01T04:54:48.020Z,88.63
2022-12-01T04:57:16.157Z,88.50
2022-12-01T04:59:44.293Z,88.76
2022-12-01T05:02:12.466Z,88.52
2022-12-01T05:04:41.800Z,88.52
2022-12-01T05:07:10.272Z,88.31
2022-12-01T05:09:38.845Z,88.58
2022-12-01T05:12:08.537Z,88.48
2022-12-01T05:14:36.660Z,88.58
2022-12-01T05:17:04.849Z,88.58
2022-12-01T05:19:50.865Z,88.67
2022-12-01T05:22:36.466Z,88.53
2022-12-01T05:25:07.604Z,88.54
2022-12-01T05:27:37.126Z,88.42
2022-12-01T05:30:06.443Z,88.62
2022-12-01T05:32:34.602Z,88.55
2022-12-01T05:35:02.791Z,88.44
2022-12-01T05:37:34.532Z,88.50
2022-12-01T05:40:02.787Z,88.53
2022-12-01T05:42:30.942Z,88.51
2022-12-01T05:45:00.503Z,88.38
2022-12-01T05:47:28.602Z,88.43
2022-12-01T05:50:00.768Z,88.42
2022-12-01T05:52:31.835Z,88.32
2022-12-01T05:54:59.955Z,88.40
2022-12-01T05:57:28.172Z,88.38
2022-12-01T05:59:56.305Z,88.26
2022-12-01T06:02:26.709Z,88.32
2022-12-01T06:04:54.900Z,88.22
2022-12-01T06:07:25.570Z,88.22
2022-12-01T06:09:54.093Z,88.37
2022-12-01T06:12:22.325Z,88.20
2022-12-01T06:14:50.427Z,88.33
2022-12-01T06:17:18.670Z,88.39
2022-12-01T06:19:48.756Z,88.30
2022-12-01T06:22:17.127Z,88.20
2022-12-01T06:24:45.274Z,88.34
2022-12-01T06:27:13.425Z,88.27
2022-12-01T06:29:42.429Z,88.31
2022-12-01T06:32:10.829Z,88.25
2022-12-01T06:34:38.979Z,88.26
2022-12-01T06:37:08.572Z,88.31
2022-12-01T06:39:36.749Z,88.35
2022-12-01T06:42:05.100Z,88.39
2022-12-01T06:44:33.211Z,88.31
2022-12-01T06:47:01.361Z,88.33
2022-12-01T06:49:29.510Z,88.22
2022-12-01T06:51:57.634Z,88.18
2022-12-01T06:54:27.417Z,88.27
2022-12-01T06:56:55.547Z,88.21
2022-12-01T06:59:24.729Z,88.29
2022-12-01T07:01:53.204Z,88.05
2022-12-01T07:04:21.661Z,88.16
2022-12-01T07:06:49.917Z,87.97
2022-12-01T07:09:18.046Z,87.91
2022-12-01T07:11:47.604Z,88.09
2022-12-01T07:14:19.902Z,87.94
2022-12-01T07:16:48.092Z,88.02
2022-12-01T07:19:16.275Z,87.87
2022-12-01T07:21:44.420Z,87.89
2022-12-01T07:24:13.332Z,88.06
2022-12-01T07:26:42.170Z,87.94
2022-12-01T07:29:12.107Z,87.95
2022-12-01T07:31:40.397Z,88.03
2022-12-01T07:34:08.518Z,87.98
2022-12-01T07:36:36.659Z,88.04
2022-12-01T07:39:07.534Z,88.09
2022-12-01T07:41:35.761Z,88.02
2022-12-01T07:44:04.033Z,88.06
2022-12-01T07:46:33.632Z,88.10
2022-12-01T07:49:02.089Z,88.05
2022-12-01T07:51:30.195Z,88.09
2022-12-01T07:54:02.876Z,88.23
2022-12-01T07:56:31.039Z,88.17
2022-12-01T07:58:59.214Z,88.27
2022-12-01T08:01:27.587Z,87.97
2022-12-01T08:03:58.557Z,88.16
2022-12-01T08:06:27.426Z,88.11
2022-12-01T08:08:55.920Z,88.09
2022-12-01T08:11:25.603Z,88.05
2022-12-01T08:13:54.256Z,87.88
2022-12-01T08:16:23.861Z,88.22
2022-12-01T08:18:52.401Z,88.11
2022-12-01T08:21:24.501Z,87.98
2022-12-01T08:23:54.977Z,87.86
2022-12-01T08:26:24.267Z,87.92
2022-12-01T08:28:52.849Z,87.94
2022-12-01T08:31:24.489Z,87.79
2022-12-01T08:33:53.176Z,87.91
2022-12-01T08:36:23.361Z,87.94
2022-12-01T08:38:53.667Z,87.94
2022-12-01T08:41:22.732Z,88.07
2022-12-01T08:43:59.149Z,87.86
2022-12-01T08:46:28.764Z,87.85
2022-12-01T08:48:57.659Z,87.87
2022-12-01T08:51:28.075Z,87.76
2022-12-01T08:53:57.214Z,87.91
2022-12-01T08:56:27.159Z,87.62
2022-12-01T08:58:55.620Z,87.73
2022-12-01T09:01:25.613Z,87.71
2022-12-01T09:04:05.856Z,87.83
2022-12-01T09:06:39.768Z,87.73
2022-12-01T09:09:08.215Z,87.53
2022-12-01T09:11:36.458Z,87.53
2022-12-01T09:14:04.782Z,87.70
2022-12-01T09:16:33.579Z,87.53
2022-12-01T09:19:02.123Z,87.65
2022-12-01T09:21:31.948Z,87.59
2022-12-01T09:24:02.272Z,87.54
2022-12-01T09:26:30.950Z,87.48
2022-12-01T09:29:01.694Z,87.26
2022-12-01T09:31:30.300Z,87.23
2022-12-01T09:33:59.604Z,87.23
2022-12-01T09:36:28.712Z,86.94
2022-12-01T09:38:57.189Z,87.07
2022-12-01T09:41:29.308Z,87.40
2022-12-01T09:44:00.953Z,87.03
2022-12-01T09:46:33.852Z,87.11
2022-12-01T09:49:03.751Z,87.26
2022-12-01T09:51:36.161Z,86.74
2022-12-01T09:54:04.923Z,86.92
2022-12-01T09:56:40.847Z,86.91
2022-12-01T09:59:09.331Z,87.23
2022-12-01T10:01:39.071Z,87.20
2022-12-01T10:04:10.733Z,86.95
2022-12-01T10:06:43.170Z,87.09
2022-12-01T10:09:20.118Z,87.07
2022-12-01T10:11:51.966Z,87.02
2022-12-01T10:14:22.078Z,87.03
2022-12-01T10:17:04.744Z,87.22
2022-12-01T10:19:39.584Z,87.04
2022-12-01T10:22:31.038Z,86.84
2022-12-01T10:25:07.179Z,87.06
2022-12-01T10:27:48.345Z,86.93
2022-12-01T10:30:18.538Z,87.17
2022-12-01T10:32:52.784Z,86.82
2022-12-01T10:35:22.674Z,87.02
2022-12-01T10:38:01.289Z,87.10
2022-12-01T10:40:34.548Z,87.09
2022-12-01T10:43:04.175Z,87.03
2022-12-01T10:45:38.197Z,87.26
2022-12-01T10:48:15.884Z,87.15
2022-12-01T10:50:45.155Z,87.15
2022-12-01T10:53:31.992Z,87.05
2022-12-01T10:56:04.928Z,86.95
2022-12-01T10:58:35.284Z,87.10
2022-12-01T11:01:06.222Z,87.01
2022-12-01T11:03:37.445Z,87.04
2022-12-01T11:06:08.198Z,86.98
2022-12-01T11:08:40.816Z,87.11
2022-12-01T11:11:25.906Z,86.93
2022-12-01T11:13:56.160Z,86.95
2022-12-01T11:16:42.473Z,87.17
2022-12-01T11:19:26.941Z,86.89
2022-12-01T11:21:57.485Z,86.76
2022-12-01T11:24:44.103Z,86.41
2022-12-01T11:27:18.417Z,86.35
2022-12-01T11:29:50.635Z,86.40
2022-12-01T11:32:22.857Z,86.30
2022-12-01T11:34:54.640Z,86.16
2022-12-01T11:37:25.611Z,86.16
2022-12-01T11:39:53.867Z,86.27
2022-12-01T11:42:29.072Z,86.40
2022-12-01T11:45:08.624Z,86.07
2022-12-01T11:47:36.741Z,86.08
2022-12-01T11:50:24.748Z,86.03
2022-12-01T11:52:52.877Z,86.11
2022-12-01T11:55:23.380Z,86.22
2022-12-01T11:57:54.149Z,85.97
2022-12-01T12:00:25.765Z,85.76
2022-12-01T12:03:17.110Z,85.85
2022-12-01T12:09:06.208Z,85.97
2022-12-01T12:11:44.576Z,85.82
2022-12-01T12:14:41.037Z,85.82
2022-12-01T12:17:32.082Z,86.07
2022-12-01T12:20:09.771Z,85.92
2022-12-01T12:22:49.635Z,85.98
2022-12-01T12:25:29.539Z,85.97
2022-12-01T12:28:08.069Z,86.37
2022-12-01T12:30:42.647Z,85.98
2022-12-01T12:33:36.930Z,86.08
2022-12-01T12:36:14.668Z,86.20
2022-12-01T12:38:56.020Z,86.03
2022-12-01T12:41:30.088Z,85.60
2022-12-01T12:44:10.516Z,85.77
2022-12-01T12:46:47.497Z,85.76
2022-12-01T12:49:28.369Z,85.71
2022-12-01T12:52:07.849Z,85.63
2022-12-01T12:54:43.050Z,85.75
2022-12-01T12:57:26.777Z,85.62
2022-12-01T12:59:58.941Z,85.64
2022-12-01T13:02:32.944Z,86.11
2022-12-01T13:05:07.884Z,85.83
2022-12-01T13:07:41.487Z,85.96
2022-12-01T13:10:17.603Z,85.82
2022-12-01T13:12:52.979Z,85.82
2022-12-01T13:15:22.447Z,85.98
2022-12-01T13:17:53.880Z,85.77
2022-12-01T13:20:27.622Z,85.95
2022-12-01T13:22:57.123Z,86.10
2022-12-01T13:25:28.776Z,85.99
2022-12-01T13:28:01.491Z,85.96
2022-12-01T13:30:30.092Z,86.08
2022-12-01T13:33:03.415Z,86.20
2022-12-01T13:35:36.405Z,85.70
2022-12-01T13:38:21.144Z,85.87
2022-12-01T13:40:50.132Z,85.64
2022-12-01T13:43:20.789Z,85.81
2022-12-01T13:45:49.855Z,85.82
2022-12-01T13:48:29.986Z,85.80
2022-12-01T13:51:01.628Z,85.68
2022-12-01T13:53:36.746Z,85.91
2022-12-01T13:56:27.345Z,85.71
2022-12-01T13:58:55.860Z,86.00
2022-12-01T14:01:49.059Z,85.77
2022-12-01T14:04:32.078Z,85.85
2022-12-01T14:07:33.355Z,85.93
2022-12-01T14:10:29.871Z,85.95
2022-12-01T14:13:02.827Z,85.78
2022-12-01T14:15:36.636Z,85.70
2022-12-01T14:18:07.955Z,85.86
2022-12-01T14:20:44.715Z,85.74
2022-12-01T14:23:17.878Z,85.80
2022-12-01T14:26:00.007Z,85.91
2022-12-01T14:29:13.602Z,85.86
2022-12-01T14:32:23.867Z,85.94
2022-12-01T14:35:00.733Z,85.97
2022-12-01T14:37:36.380Z,86.38
2022-12-01T14:40:09.889Z,86.05
2022-12-01T14:42:57.997Z,86.36
2022-12-01T14:45:29.862Z,86.31
2022-12-01T14:48:02.324Z,86.32
2022-12-01T14:50:35.850Z,86.40
2022-12-01T14:53:13.755Z,86.51
2022-12-01T14:55:46.834Z,86.45
2022-12-01T14:58:17.974Z,86.53
2022-12-01T15:01:04.992Z,86.64
2022-12-01T15:03:37.354Z,86.71
2022-12-01T15:06:06.183Z,86.50
2022-12-01T15:11:27.008Z,86.66
2022-12-01T15:13:56.073Z,86.55
2022-12-01T15:16:25.745Z,86.41
2022-12-01T15:18:54.148Z,86.54
2022-12-01T15:21:25.141Z,86.89
2022-12-01T15:23:57.752Z,86.68
2022-12-01T15:26:29.689Z,86.58
2022-12-01T15:29:19.095Z,86.87
2022-12-01T15:31:49.509Z,86.99
2022-12-01T15:34:20.240Z,87.11
2022-12-01T15:36:49.391Z,87.04
2022-12-01T15:39:18.890Z,87.01
2022-12-01T15:41:53.869Z,87.25
2022-12-01T15:44:27.409Z,87.17
2022-12-01T15:46:56.022Z,87.29
2022-12-01T15:49:27.701Z,87.25
2022-12-01T15:51:57.288Z,87.27
2022-12-01T15:54:27.388Z,87.31
2022-12-01T15:56:58.641Z,87.31
2022-12-01T15:59:38.151Z,87.27
2022-12-01T16:02:23.778Z,87.28
2022-12-01T16:05:01.457Z,87.37
2022-12-01T16:08:04.622Z,87.37
2022-12-01T16:10:30.146Z,87.27
2022-12-01T16:13:39.508Z,87.27
2022-12-01T16:16:32.006Z,87.51
2022-12-01T16:19:02.228Z,87.50
2022-12-01T16:21:32.212Z,87.50
2022-12-01T16:24:01.866Z,87.42
2022-12-01T16:26:31.370Z,87.25
2022-12-01T16:29:01.111Z,87.32
2022-12-01T16:31:29.370Z,87.32
2022-12-01T16:34:13.977Z,87.29
2022-12-01T16:36:46.940Z,87.32
2022-12-01T16:39:15.551Z,87.13
2022-12-01T16:41:46.662Z,87.25
2022-12-01T16:44:32.160Z,87.19
2022-12-01T16:47:00.328Z,87.34
2022-12-01T16:49:28.615Z,87.27
2022-12-01T16:51:57.550Z,87.34
2022-12-01T16:54:28.330Z,87.31
2022-12-01T16:56:56.453Z,87.36
2022-12-01T16:59:26.005Z,87.38
2022-12-01T17:01:54.220Z,87.26
2022-12-01T17:04:22.399Z,87.26
2022-12-01T17:06:50.595Z,87.30
2022-12-01T17:09:18.712Z,87.13
2022-12-01T17:11:46.915Z,87.09
2022-12-01T17:14:15.043Z,87.23
2022-12-01T17:16:44.699Z,87.17
2022-12-01T17:19:12.925Z,87.10
2022-12-01T17:21:41.064Z,87.19
2022-12-01T17:24:09.595Z,87.15
2022-12-01T17:26:37.739Z,87.14
2022-12-01T17:29:05.959Z,87.23
2022-12-01T17:31:34.225Z,87.17
2022-12-01T17:34:03.908Z,87.14
2022-12-01T17:36:32.132Z,87.10
2022-12-01T17:39:00.390Z,87.15
2022-12-01T17:41:32.579Z,87.01
2022-12-01T17:44:03.649Z,87.09
2022-12-01T17:46:32.596Z,86.94
2022-12-01T17:49:00.975Z,86.97
2022-12-01T17:51:30.663Z,87.10
2022-12-01T17:53:58.980Z,87.02
2022-12-01T17:56:27.254Z,87.01
2022-12-01T17:58:55.568Z,87.04
2022-12-01T18:01:28.553Z,87.16
2022-12-01T18:03:59.075Z,87.29
2022-12-01T18:06:27.628Z,87.01
2022-12-01T18:08:57.658Z,86.96
2022-12-01T18:11:25.960Z,87.02
2022-12-01T18:13:54.888Z,87.05
2022-12-01T18:16:24.573Z,87.31
2022-12-01T18:18:53.165Z,87.32
2022-12-01T18:21:23.648Z,87.24
2022-12-01T18:23:52.441Z,87.30
2022-12-01T18:26:23.045Z,87.06
2022-12-01T18:28:55.069Z,87.21
2022-12-01T18:31:23.373Z,87.27
2022-12-01T18:33:51.636Z,87.10
2022-12-01T18:36:24.951Z,87.19
2022-12-01T18:38:54.559Z,87.21
2022-12-01T18:41:24.329Z,87.11
2022-12-01T18:43:52.563Z,87.24
2022-12-01T18:46:21.604Z,87.08
2022-12-01T18:48:51.433Z,87.33
2022-12-01T18:51:20.533Z,87.21
2022-12-01T18:53:48.899Z,87.43
2022-12-01T18:56:17.328Z,87.39
2022-12-01T18:58:46.941Z,87.47
2022-12-01T19:01:19.727Z,87.53
2022-12-01T19:03:48.014Z,87.54
2022-12-01T19:06:16.268Z,87.64
2022-12-01T19:08:44.759Z,87.63
2022-12-01T19:11:12.872Z,87.54
2022-12-01T19:13:41.655Z,87.53
2022-12-01T19:16:13.713Z,87.50
2022-12-01T19:18:45.268Z,87.33
2022-12-01T19:21:15.381Z,87.58
2022-12-01T19:23:44.208Z,87.52
2022-12-01T19:26:15.019Z,87.55
2022-12-01T19:28:45.366Z,87.43
2022-12-01T19:31:17.078Z,87.48
2022-12-01T19:33:45.279Z,87.56
2022-12-01T19:36:15.815Z,87.55
2022-12-01T19:38:44.611Z,87.59
2022-12-01T19:41:13.875Z,87.48
2022-12-01T19:43:43.256Z,87.62
2022-12-01T19:46:15.815Z,87.60
2022-12-01T19:48:44.670Z,87.56
2022-12-01T19:51:19.676Z,87.53
2022-12-01T19:53:53.497Z,87.55
2022-12-01T19:56:22.735Z,87.62
2022-12-01T19:58:51.001Z,87.61
2022-12-01T20:01:21.361Z,87.48
2022-12-01T20:03:50.969Z,87.58
2022-12-01T20:06:21.283Z,87.67
2022-12-01T20:08:49.661Z,87.65
2022-12-01T20:11:18.143Z,87.60
2022-12-01T20:13:48.079Z,87.75
2022-12-01T20:16:18.661Z,87.62
2022-12-01T20:18:49.052Z,87.66
2022-12-01T20:21:20.515Z,87.58
2022-12-01T20:23:50.263Z,87.72
2022-12-01T20:26:20.432Z,87.63
2022-12-01T20:28:50.683Z,87.41
2022-12-01T20:31:22.272Z,87.59
2022-12-01T20:33:53.487Z,87.65
2022-12-01T20:36:22.848Z,87.59
2022-12-01T20:38:51.171Z,87.56
2022-12-01T20:41:19.885Z,87.62
2022-12-01T20:43:48.143Z,87.50
2022-12-01T20:46:16.454Z,87.62
2022-12-01T20:48:44.736Z,87.55
2022-12-01T20:51:15.127Z,87.54
2022-12-01T20:53:59.629Z,87.51
2022-12-01T20:56:31.952Z,87.53
2022-12-01T20:59:00.633Z,87.44
2022-12-01T21:01:28.875Z,87.45
2022-12-01T21:03:57.017Z,87.34
2022-12-01T21:06:28.717Z,87.39
2022-12-01T21:08:57.190Z,87.43
2022-12-01T21:11:41.553Z,87.41
2022-12-01T21:14:14.866Z,87.37
2022-12-01T21:16:48.131Z,87.49
2022-12-01T21:19:22.953Z,87.53
2022-12-01T21:21:52.485Z,87.45
2022-12-01T21:24:22.357Z,87.50
2022-12-01T21:26:54.473Z,87.38
2022-12-01T21:29:25.142Z,87.63
2022-12-01T21:31:54.542Z,87.40
2022-12-01T21:34:24.784Z,87.46
2022-12-01T21:36:55.950Z,87.48
2022-12-01T21:39:26.413Z,87.24
2022-12-01T21:41:57.177Z,87.54
2022-12-01T21:44:31.024Z,87.37
2022-12-01T21:46:59.284Z,87.45
2022-12-01T21:49:33.643Z,87.55
2022-12-01T21:52:07.516Z,87.42
2022-12-01T21:54:35.901Z,87.46
2022-12-01T21:57:09.720Z,87.59
2022-12-01T21:59:37.864Z,87.54
2022-12-01T22:02:25.886Z,87.79
2022-12-01T22:04:54.296Z,87.69
2022-12-01T22:07:23.870Z,87.61
2022-12-01T22:09:52.673Z,87.74
2022-12-01T22:12:25.551Z,87.61
2022-12-01T22:14:54.764Z,87.60
2022-12-01T22:17:23.257Z,87.68
2022-12-01T22:19:56.462Z,87.73
2022-12-01T22:22:27.144Z,87.54
2022-12-01T22:24:59.172Z,87.83
2022-12-01T22:27:32.624Z,87.74
2022-12-01T22:30:03.225Z,87.90
2022-12-01T22:32:42.317Z,87.79
2022-12-01T22:35:32.936Z,87.77
2022-12-01T22:38:33.468Z,87.66
2022-12-01T22:41:04.730Z,87.72
2022-12-01T22:43:45.343Z,87.72
2022-12-01T22:46:27.907Z,87.66
2022-12-01T22:48:57.577Z,87.70
2022-12-01T22:51:31.742Z,87.45
2022-12-01T22:54:07.310Z,87.63
2022-12-01T22:56:39.489Z,87.60
2022-12-01T22:59:14.500Z,87.62
2022-12-01T23:01:48.296Z,87.59
2022-12-01T23:04:23.428Z,87.69
2022-12-01T23:07:01.220Z,87.65
2022-12-01T23:09:35.537Z,87.56
2022-12-01T23:12:21.936Z,87.70
2022-12-01T23:14:52.039Z,87.64
2022-12-01T23:17:22.446Z,87.60
2022-12-01T23:19:52.644Z,87.61
2022-12-01T23:22:21.191Z,87.59
2022-12-01T23:24:51.007Z,87.43
2022-12-01T23:27:19.316Z,87.29
2022-12-01T23:29:47.524Z,87.41
2022-12-01T23:32:15.700Z,87.35
2022-12-01T23:34:43.886Z,87.16
2022-12-01T23:37:27.024Z,87.31
2022-12-01T23:39:57.014Z,87.34
2022-12-01T23:42:25.134Z,87.33
2022-12-01T23:44:53.761Z,87.37
2022-12-01T23:47:25.413Z,87.36
2022-12-01T23:49:58.860Z,87.46
2022-12-01T23:52:31.449Z,87.42
2022-12-01T23:55:01.097Z,87.31
2022-12-01T23:57:29.273Z,87.28
